PHM01 EGPD-ZZZZ
Flight info
| Callsign | PHM01 |
|---|---|
| Flight time | N/A |
| Altitude | 3000 |
| Route | EGPD16 DCT O1011 |
| Aircraft | H145/L-V/N |
Departure
| Time | 2026-05-06 14:42 |
|---|---|
| Airport | Aberdeen International Airport (EGPD) |
Arrival
| Time | N/A |
|---|---|
| Airport | ZZZZ |
| Time | Latitude | Longitude | Altitude | Speed | Heading |
|---|---|---|---|---|---|
| 2026-05-06 14:16 | 57.20243 | -2.19378 | 244 ft | 0 kts | 19° |
| 2026-05-06 14:33 | 57.20244 | -2.19378 | 246 ft | 1 kts | 26° |
| 2026-05-06 14:33 | 57.20258 | -2.19384 | 244 ft | 2 kts | 304° |
| 2026-05-06 14:34 | 57.20263 | -2.19418 | 246 ft | 4 kts | 302° |
| 2026-05-06 14:34 | 57.20272 | -2.19458 | 245 ft | 3 kts | 302° |
| 2026-05-06 14:34 | 57.20282 | -2.19482 | 244 ft | 3 kts | 346° |
| 2026-05-06 14:34 | 57.20296 | -2.19501 | 244 ft | 3 kts | 306° |
| 2026-05-06 14:35 | 57.20310 | -2.19537 | 249 ft | 4 kts | 312° |
| 2026-05-06 14:35 | 57.20328 | -2.19555 | 255 ft | 4 kts | 326° |
| 2026-05-06 14:35 | 57.20349 | -2.19607 | 257 ft | 5 kts | 283° |
| 2026-05-06 14:35 | 57.20353 | -2.19672 | 256 ft | 4 kts | 282° |
| 2026-05-06 14:36 | 57.20354 | -2.19693 | 244 ft | 1 kts | 283° |
| 2026-05-06 14:37 | 57.20353 | -2.19693 | 244 ft | 0 kts | 293° |
| 2026-05-06 14:37 | 57.20358 | -2.19748 | 248 ft | 5 kts | 256° |
| 2026-05-06 14:37 | 57.20347 | -2.19826 | 255 ft | 7 kts | 249° |
| 2026-05-06 14:38 | 57.20318 | -2.19865 | 267 ft | 13 kts | 161° |
| 2026-05-06 14:38 | 57.20137 | -2.19738 | 370 ft | 43 kts | 160° |
| 2026-05-06 14:38 | 57.19761 | -2.19460 | 416 ft | 71 kts | 162° |
| 2026-05-06 14:38 | 57.19268 | -2.19086 | 528 ft | 81 kts | 159° |
| 2026-05-06 14:39 | 57.18734 | -2.18643 | 636 ft | 86 kts | 156° |
| 2026-05-06 14:39 | 57.18358 | -2.18254 | 701 ft | 86 kts | 147° |
| 2026-05-06 14:41 | 57.18186 | -2.17981 | 747 ft | 84 kts | 141° |
| 2026-05-06 14:42 | 57.17833 | -2.17117 | 871 ft | 86 kts | 125° |
| 2026-05-06 14:42 | 57.17673 | -2.16053 | 983 ft | 88 kts | 103° |
| 2026-05-06 14:42 | 57.17806 | -2.14885 | 1104 ft | 100 kts | 76° |
| 2026-05-06 14:42 | 57.18282 | -2.13888 | 1277 ft | 106 kts | 41° |
| 2026-05-06 14:43 | 57.18958 | -2.13335 | 1476 ft | 111 kts | 18° |
| 2026-05-06 14:43 | 57.19745 | -2.13188 | 1553 ft | 118 kts | 4° |
| 2026-05-06 14:43 | 57.20597 | -2.13068 | 1576 ft | 126 kts | 5° |
| 2026-05-06 14:43 | 57.21494 | -2.12901 | 1596 ft | 132 kts | 7° |
| 2026-05-06 14:44 | 57.22413 | -2.12676 | 1598 ft | 133 kts | 10° |
| 2026-05-06 14:44 | 57.23318 | -2.12413 | 1682 ft | 132 kts | 11° |
| 2026-05-06 14:44 | 57.24222 | -2.12113 | 1776 ft | 131 kts | 12° |
| 2026-05-06 14:45 | 57.25961 | -2.11259 | 1875 ft | 128 kts | 28° |
| 2026-05-06 14:45 | 57.26703 | -2.10411 | 1924 ft | 123 kts | 42° |
| 2026-05-06 14:45 | 57.27337 | -2.09383 | 2011 ft | 120 kts | 49° |
| 2026-05-06 14:45 | 57.27938 | -2.08341 | 2116 ft | 118 kts | 47° |
| 2026-05-06 14:46 | 57.28539 | -2.07328 | 2210 ft | 116 kts | 47° |
| 2026-05-06 14:46 | 57.29143 | -2.06338 | 2325 ft | 115 kts | 43° |
| 2026-05-06 14:46 | 57.29746 | -2.05372 | 2430 ft | 114 kts | 45° |
| 2026-05-06 14:46 | 57.30349 | -2.04422 | 2532 ft | 114 kts | 46° |
| 2026-05-06 14:47 | 57.30954 | -2.03479 | 2662 ft | 114 kts | 45° |
| 2026-05-06 14:47 | 57.31553 | -2.02554 | 2811 ft | 113 kts | 44° |
| 2026-05-06 14:47 | 57.32160 | -2.01621 | 2892 ft | 115 kts | 40° |
| 2026-05-06 14:47 | 57.32789 | -2.00665 | 2950 ft | 118 kts | 40° |
| 2026-05-06 14:48 | 57.33421 | -1.99707 | 3013 ft | 118 kts | 41° |
| 2026-05-06 14:48 | 57.34066 | -1.98739 | 3010 ft | 119 kts | 39° |
| 2026-05-06 14:48 | 57.34705 | -1.97783 | 3009 ft | 118 kts | 41° |
| 2026-05-06 14:48 | 57.35342 | -1.96829 | 3006 ft | 117 kts | 39° |
| 2026-05-06 14:49 | 57.35975 | -1.95880 | 3002 ft | 117 kts | 40° |
| 2026-05-06 14:49 | 57.36607 | -1.94931 | 3005 ft | 117 kts | 42° |
| 2026-05-06 14:49 | 57.37240 | -1.93981 | 3002 ft | 117 kts | 40° |
| 2026-05-06 14:49 | 57.37871 | -1.93036 | 3001 ft | 116 kts | 40° |
| 2026-05-06 14:50 | 57.38496 | -1.92100 | 2999 ft | 115 kts | 40° |
| 2026-05-06 14:50 | 57.39116 | -1.91169 | 3000 ft | 115 kts | 42° |
| 2026-05-06 14:50 | 57.39734 | -1.90241 | 3000 ft | 114 kts | 42° |
| 2026-05-06 14:50 | 57.40350 | -1.89314 | 3001 ft | 114 kts | 42° |
| 2026-05-06 14:51 | 57.40964 | -1.88389 | 2995 ft | 114 kts | 42° |
| 2026-05-06 14:51 | 57.41575 | -1.87459 | 3003 ft | 114 kts | 40° |
| 2026-05-06 14:51 | 57.42189 | -1.86534 | 2998 ft | 114 kts | 40° |
| 2026-05-06 14:51 | 57.42807 | -1.85608 | 2997 ft | 114 kts | 41° |
| 2026-05-06 14:52 | 57.43421 | -1.84685 | 2992 ft | 113 kts | 40° |
| 2026-05-06 14:52 | 57.44032 | -1.83768 | 2998 ft | 113 kts | 41° |
| 2026-05-06 14:52 | 57.44629 | -1.82869 | 2989 ft | 111 kts | 41° |
| 2026-05-06 14:52 | 57.45229 | -1.81956 | 2998 ft | 112 kts | 42° |
| 2026-05-06 14:53 | 57.45834 | -1.81042 | 3003 ft | 112 kts | 41° |
| 2026-05-06 14:53 | 57.46440 | -1.80127 | 3001 ft | 112 kts | 41° |
| 2026-05-06 14:53 | 57.47042 | -1.79219 | 2993 ft | 110 kts | 38° |
| 2026-05-06 14:53 | 57.47632 | -1.78326 | 2995 ft | 108 kts | 39° |
| 2026-05-06 14:54 | 57.48211 | -1.77445 | 2989 ft | 107 kts | 39° |
| 2026-05-06 14:54 | 57.48786 | -1.76570 | 2992 ft | 107 kts | 39° |
| 2026-05-06 14:54 | 57.49359 | -1.75698 | 2992 ft | 106 kts | 39° |
| 2026-05-06 14:54 | 57.49931 | -1.74828 | 2989 ft | 106 kts | 39° |
| 2026-05-06 14:55 | 57.50500 | -1.73963 | 2992 ft | 105 kts | 39° |
| 2026-05-06 14:55 | 57.51066 | -1.73101 | 2992 ft | 105 kts | 39° |
| 2026-05-06 14:55 | 57.51632 | -1.72241 | 2991 ft | 105 kts | 39° |
| 2026-05-06 14:55 | 57.52190 | -1.71393 | 2993 ft | 105 kts | 39° |
| 2026-05-06 14:56 | 57.52753 | -1.70536 | 2996 ft | 104 kts | 39° |
| 2026-05-06 14:56 | 57.53317 | -1.69679 | 2996 ft | 104 kts | 39° |
| 2026-05-06 14:56 | 57.53878 | -1.68825 | 2996 ft | 104 kts | 39° |
| 2026-05-06 14:56 | 57.54438 | -1.67971 | 2995 ft | 104 kts | 39° |
| 2026-05-06 14:57 | 57.54810 | -1.67406 | 2998 ft | 104 kts | 39° |
| 2026-05-06 14:57 | 57.55369 | -1.66553 | 2998 ft | 104 kts | 39° |
| 2026-05-06 14:57 | 57.55929 | -1.65701 | 2998 ft | 104 kts | 39° |
| 2026-05-06 14:57 | 57.56487 | -1.64850 | 2996 ft | 104 kts | 39° |
| 2026-05-06 14:58 | 57.57044 | -1.64000 | 2996 ft | 103 kts | 39° |
| 2026-05-06 14:58 | 57.57602 | -1.63149 | 2996 ft | 103 kts | 39° |
| 2026-05-06 14:58 | 57.58160 | -1.62298 | 2997 ft | 103 kts | 39° |
| 2026-05-06 14:58 | 57.58715 | -1.61451 | 2998 ft | 103 kts | 39° |
| 2026-05-06 14:59 | 57.59272 | -1.60601 | 2996 ft | 103 kts | 39° |
| 2026-05-06 14:59 | 57.59826 | -1.59753 | 2998 ft | 103 kts | 39° |
| 2026-05-06 14:59 | 57.60381 | -1.58905 | 2996 ft | 103 kts | 39° |
| 2026-05-06 14:59 | 57.60935 | -1.58057 | 2998 ft | 103 kts | 39° |
| 2026-05-06 15:00 | 57.61490 | -1.57209 | 2995 ft | 103 kts | 39° |
| 2026-05-06 15:00 | 57.62044 | -1.56362 | 2999 ft | 103 kts | 39° |
| 2026-05-06 15:00 | 57.62591 | -1.55523 | 3000 ft | 103 kts | 39° |
| 2026-05-06 15:00 | 57.63144 | -1.54676 | 2998 ft | 103 kts | 39° |
| 2026-05-06 15:01 | 57.63697 | -1.53829 | 3001 ft | 103 kts | 39° |
| 2026-05-06 15:01 | 57.64250 | -1.52982 | 2998 ft | 103 kts | 39° |
| 2026-05-06 15:01 | 57.64803 | -1.52133 | 2999 ft | 103 kts | 37° |
| 2026-05-06 15:01 | 57.65358 | -1.51282 | 2998 ft | 103 kts | 38° |
| 2026-05-06 15:02 | 57.65914 | -1.50430 | 2996 ft | 103 kts | 38° |
| 2026-05-06 15:02 | 57.66468 | -1.49579 | 2996 ft | 103 kts | 38° |
| 2026-05-06 15:02 | 57.67024 | -1.48724 | 2997 ft | 104 kts | 38° |
| 2026-05-06 15:02 | 57.67583 | -1.47866 | 2999 ft | 104 kts | 38° |
| 2026-05-06 15:03 | 57.68140 | -1.47009 | 2998 ft | 104 kts | 38° |
| 2026-05-06 15:03 | 57.68697 | -1.46153 | 2996 ft | 104 kts | 38° |
| 2026-05-06 15:03 | 57.69248 | -1.45307 | 2997 ft | 104 kts | 38° |
| 2026-05-06 15:03 | 57.69812 | -1.44439 | 3003 ft | 104 kts | 37° |
| 2026-05-06 15:04 | 57.70362 | -1.43591 | 2998 ft | 104 kts | 37° |
| 2026-05-06 15:04 | 57.70919 | -1.42732 | 3000 ft | 104 kts | 38° |
| 2026-05-06 15:04 | 57.71477 | -1.41871 | 3000 ft | 104 kts | 38° |
| 2026-05-06 15:04 | 57.72034 | -1.41012 | 3000 ft | 104 kts | 38° |
| 2026-05-06 15:05 | 57.72593 | -1.40149 | 2997 ft | 104 kts | 38° |
| 2026-05-06 15:05 | 57.73152 | -1.39288 | 3002 ft | 104 kts | 38° |
| 2026-05-06 15:05 | 57.73711 | -1.38426 | 3001 ft | 104 kts | 38° |
| 2026-05-06 15:05 | 57.74262 | -1.37575 | 2997 ft | 104 kts | 38° |
| 2026-05-06 15:06 | 57.74818 | -1.36716 | 3001 ft | 104 kts | 38° |
| 2026-05-06 15:06 | 57.75376 | -1.35855 | 3001 ft | 104 kts | 38° |
| 2026-05-06 15:06 | 57.75931 | -1.34995 | 3001 ft | 104 kts | 38° |
| 2026-05-06 15:06 | 57.76487 | -1.34135 | 3001 ft | 104 kts | 38° |
| 2026-05-06 15:07 | 57.77043 | -1.33274 | 2998 ft | 104 kts | 38° |
| 2026-05-06 15:07 | 57.77598 | -1.32415 | 2996 ft | 103 kts | 38° |
| 2026-05-06 15:07 | 57.78153 | -1.31555 | 2998 ft | 104 kts | 38° |
| 2026-05-06 15:07 | 57.78708 | -1.30694 | 2998 ft | 104 kts | 38° |
| 2026-05-06 15:08 | 57.79265 | -1.29832 | 3003 ft | 104 kts | 38° |
| 2026-05-06 15:08 | 57.79821 | -1.28970 | 2999 ft | 104 kts | 38° |
| 2026-05-06 15:08 | 57.80375 | -1.28110 | 3001 ft | 103 kts | 38° |
| 2026-05-06 15:08 | 57.80930 | -1.27249 | 3001 ft | 103 kts | 38° |
| 2026-05-06 15:09 | 57.81477 | -1.26399 | 3000 ft | 103 kts | 38° |
| 2026-05-06 15:09 | 57.82031 | -1.25539 | 3000 ft | 103 kts | 37° |
| 2026-05-06 15:09 | 57.82584 | -1.24679 | 3000 ft | 103 kts | 38° |
| 2026-05-06 15:09 | 57.83139 | -1.23818 | 3000 ft | 103 kts | 38° |
| 2026-05-06 15:10 | 57.83690 | -1.22960 | 3001 ft | 103 kts | 39° |
| 2026-05-06 15:10 | 57.84242 | -1.22102 | 2998 ft | 103 kts | 38° |
| 2026-05-06 15:10 | 57.84795 | -1.21242 | 2999 ft | 103 kts | 39° |
| 2026-05-06 15:10 | 57.85348 | -1.20381 | 3001 ft | 103 kts | 39° |
| 2026-05-06 15:11 | 57.85901 | -1.19520 | 3000 ft | 103 kts | 39° |
| 2026-05-06 15:11 | 57.86452 | -1.18661 | 2997 ft | 103 kts | 39° |
| 2026-05-06 15:11 | 57.87004 | -1.17801 | 2998 ft | 103 kts | 39° |
| 2026-05-06 15:11 | 57.87555 | -1.16940 | 3000 ft | 103 kts | 39° |
| 2026-05-06 15:12 | 57.88110 | -1.16074 | 3004 ft | 103 kts | 39° |
| 2026-05-06 15:12 | 57.88655 | -1.15222 | 3003 ft | 103 kts | 39° |
| 2026-05-06 15:12 | 57.89208 | -1.14360 | 3003 ft | 103 kts | 39° |
| 2026-05-06 15:12 | 57.89760 | -1.13497 | 3005 ft | 103 kts | 39° |
| 2026-05-06 15:13 | 57.90313 | -1.12634 | 3001 ft | 103 kts | 39° |
| 2026-05-06 15:13 | 57.90867 | -1.11769 | 3001 ft | 103 kts | 39° |
| 2026-05-06 15:13 | 57.91420 | -1.10903 | 3001 ft | 103 kts | 39° |
| 2026-05-06 15:13 | 57.91972 | -1.10041 | 3001 ft | 103 kts | 39° |
| 2026-05-06 15:14 | 57.92523 | -1.09178 | 2998 ft | 103 kts | 38° |
| 2026-05-06 15:14 | 57.93074 | -1.08315 | 3000 ft | 103 kts | 38° |
| 2026-05-06 15:14 | 57.93624 | -1.07452 | 3001 ft | 103 kts | 38° |
| 2026-05-06 15:14 | 57.94175 | -1.06588 | 3001 ft | 103 kts | 38° |
| 2026-05-06 15:15 | 57.94727 | -1.05723 | 3003 ft | 103 kts | 38° |
| 2026-05-06 15:15 | 57.95273 | -1.04866 | 3004 ft | 103 kts | 38° |
| 2026-05-06 15:15 | 57.95824 | -1.04001 | 3004 ft | 103 kts | 38° |
| 2026-05-06 15:15 | 57.96377 | -1.03133 | 3004 ft | 103 kts | 38° |
| 2026-05-06 15:16 | 57.96930 | -1.02265 | 2998 ft | 103 kts | 38° |
| 2026-05-06 15:16 | 57.97483 | -1.01395 | 3000 ft | 103 kts | 38° |
| 2026-05-06 15:16 | 57.98035 | -1.00527 | 3001 ft | 103 kts | 38° |
| 2026-05-06 15:16 | 57.98587 | -0.99659 | 3001 ft | 103 kts | 38° |
| 2026-05-06 15:17 | 57.99138 | -0.98792 | 3000 ft | 103 kts | 38° |
| 2026-05-06 15:17 | 57.99693 | -0.97918 | 2999 ft | 104 kts | 38° |
| 2026-05-06 15:17 | 58.00245 | -0.97049 | 3004 ft | 103 kts | 38° |
| 2026-05-06 15:17 | 58.00796 | -0.96182 | 3003 ft | 103 kts | 38° |
| 2026-05-06 15:18 | 58.01347 | -0.95315 | 3006 ft | 103 kts | 38° |
| 2026-05-06 15:18 | 58.01898 | -0.94446 | 3006 ft | 103 kts | 38° |
| 2026-05-06 15:18 | 58.02446 | -0.93581 | 3006 ft | 103 kts | 38° |
| 2026-05-06 15:18 | 58.02989 | -0.92725 | 3004 ft | 103 kts | 38° |
| 2026-05-06 15:19 | 58.03538 | -0.91858 | 3002 ft | 103 kts | 38° |
| 2026-05-06 15:19 | 58.04086 | -0.90992 | 3003 ft | 103 kts | 38° |
| 2026-05-06 15:19 | 58.04615 | -0.90160 | 3008 ft | 95 kts | 39° |
| 2026-05-06 15:19 | 58.05101 | -0.89397 | 3004 ft | 87 kts | 38° |
| 2026-05-06 15:20 | 58.05556 | -0.88677 | 3002 ft | 85 kts | 39° |
| 2026-05-06 15:20 | 58.06022 | -0.87935 | 3002 ft | 90 kts | 38° |
| 2026-05-06 15:20 | 58.06512 | -0.87161 | 3002 ft | 94 kts | 38° |
| 2026-05-06 15:20 | 58.07020 | -0.86355 | 3002 ft | 97 kts | 38° |
| 2026-05-06 15:21 | 58.07545 | -0.85523 | 3001 ft | 100 kts | 38° |
| 2026-05-06 15:21 | 58.08083 | -0.84669 | 2999 ft | 102 kts | 38° |
| 2026-05-06 15:21 | 58.08635 | -0.83793 | 3001 ft | 104 kts | 38° |
| 2026-05-06 15:21 | 58.09195 | -0.82905 | 3001 ft | 106 kts | 37° |
| 2026-05-06 15:22 | 58.09763 | -0.82003 | 3001 ft | 107 kts | 38° |
| 2026-05-06 15:22 | 58.10328 | -0.81104 | 2998 ft | 108 kts | 38° |
| 2026-05-06 15:22 | 58.10914 | -0.80173 | 3000 ft | 109 kts | 38° |
| 2026-05-06 15:22 | 58.11492 | -0.79253 | 3000 ft | 110 kts | 38° |
| 2026-05-06 15:23 | 58.12080 | -0.78318 | 3004 ft | 111 kts | 38° |
| 2026-05-06 15:23 | 58.12672 | -0.77378 | 3004 ft | 111 kts | 39° |
| 2026-05-06 15:23 | 58.13264 | -0.76436 | 3004 ft | 112 kts | 38° |
| 2026-05-06 15:23 | 58.13858 | -0.75490 | 3000 ft | 112 kts | 38° |
| 2026-05-06 15:24 | 58.14455 | -0.74540 | 3001 ft | 112 kts | 38° |
| 2026-05-06 15:24 | 58.15054 | -0.73586 | 2999 ft | 112 kts | 38° |
| 2026-05-06 15:24 | 58.15652 | -0.72632 | 3000 ft | 112 kts | 38° |
| 2026-05-06 15:24 | 58.16251 | -0.71676 | 2999 ft | 113 kts | 38° |
| 2026-05-06 15:25 | 58.16853 | -0.70717 | 3001 ft | 113 kts | 38° |
| 2026-05-06 15:25 | 58.17455 | -0.69758 | 3001 ft | 113 kts | 38° |
| 2026-05-06 15:25 | 58.18056 | -0.68798 | 3001 ft | 113 kts | 38° |
| 2026-05-06 15:25 | 58.18658 | -0.67838 | 3001 ft | 113 kts | 39° |
| 2026-05-06 15:26 | 58.19258 | -0.66880 | 2997 ft | 113 kts | 38° |
| 2026-05-06 15:26 | 58.19858 | -0.65921 | 2999 ft | 113 kts | 38° |
| 2026-05-06 15:26 | 58.20451 | -0.64971 | 3001 ft | 113 kts | 38° |
| 2026-05-06 15:26 | 58.21056 | -0.64003 | 3000 ft | 114 kts | 38° |
| 2026-05-06 15:27 | 58.21662 | -0.63033 | 3004 ft | 114 kts | 39° |
| 2026-05-06 15:27 | 58.22268 | -0.62061 | 3002 ft | 114 kts | 38° |
| 2026-05-06 15:27 | 58.22878 | -0.61085 | 3003 ft | 114 kts | 39° |
| 2026-05-06 15:27 | 58.23489 | -0.60107 | 2998 ft | 115 kts | 39° |
| 2026-05-06 15:28 | 58.24099 | -0.59130 | 3001 ft | 115 kts | 39° |
| 2026-05-06 15:28 | 58.24708 | -0.58152 | 3000 ft | 115 kts | 39° |
| 2026-05-06 15:28 | 58.25317 | -0.57176 | 3000 ft | 114 kts | 39° |
| 2026-05-06 15:28 | 58.25926 | -0.56197 | 3000 ft | 114 kts | 38° |
| 2026-05-06 15:29 | 58.26535 | -0.55219 | 2998 ft | 115 kts | 38° |
| 2026-05-06 15:29 | 58.27142 | -0.54240 | 3029 ft | 115 kts | 39° |
| 2026-05-06 15:29 | 58.27778 | -0.53195 | 2949 ft | 127 kts | 39° |
| 2026-05-06 15:29 | 58.28475 | -0.52074 | 2812 ft | 134 kts | 38° |
| 2026-05-06 15:30 | 58.29195 | -0.50920 | 2680 ft | 135 kts | 39° |
| 2026-05-06 15:30 | 58.29907 | -0.49783 | 2587 ft | 135 kts | 39° |
| 2026-05-06 15:30 | 58.30628 | -0.48631 | 2472 ft | 135 kts | 39° |
| 2026-05-06 15:30 | 58.31349 | -0.47476 | 2348 ft | 135 kts | 40° |
| 2026-05-06 15:31 | 58.32065 | -0.46325 | 2258 ft | 134 kts | 40° |
| 2026-05-06 15:31 | 58.32776 | -0.45180 | 2164 ft | 134 kts | 40° |
| 2026-05-06 15:31 | 58.33485 | -0.44036 | 2082 ft | 133 kts | 40° |
| 2026-05-06 15:32 | 58.34889 | -0.41774 | 1883 ft | 131 kts | 40° |
| 2026-05-06 15:32 | 58.35583 | -0.40654 | 1787 ft | 130 kts | 40° |
| 2026-05-06 15:32 | 58.36273 | -0.39539 | 1692 ft | 130 kts | 40° |
| 2026-05-06 15:32 | 58.36960 | -0.38426 | 1602 ft | 129 kts | 40° |
| 2026-05-06 15:33 | 58.37646 | -0.37315 | 1510 ft | 129 kts | 40° |
| 2026-05-06 15:33 | 58.38327 | -0.36212 | 1421 ft | 128 kts | 40° |
| 2026-05-06 15:33 | 58.39006 | -0.35112 | 1349 ft | 128 kts | 40° |
| 2026-05-06 15:33 | 58.39673 | -0.34028 | 1252 ft | 127 kts | 40° |
| 2026-05-06 15:34 | 58.40347 | -0.32934 | 1165 ft | 127 kts | 40° |
| 2026-05-06 15:34 | 58.41021 | -0.31840 | 1076 ft | 127 kts | 40° |
| 2026-05-06 15:34 | 58.41690 | -0.30751 | 990 ft | 127 kts | 40° |
| 2026-05-06 15:34 | 58.42359 | -0.29666 | 870 ft | 126 kts | 40° |
| 2026-05-06 15:35 | 58.43004 | -0.28606 | 719 ft | 118 kts | 40° |
| 2026-05-06 15:35 | 58.43602 | -0.27637 | 603 ft | 108 kts | 40° |
| 2026-05-06 15:35 | 58.44188 | -0.26871 | 533 ft | 97 kts | 25° |
| 2026-05-06 15:35 | 58.44793 | -0.26400 | 447 ft | 91 kts | 20° |
| 2026-05-06 15:36 | 58.45322 | -0.25759 | 438 ft | 91 kts | 43° |
| 2026-05-06 15:36 | 58.45583 | -0.24847 | 442 ft | 65 kts | 162° |
| 2026-05-06 15:36 | 58.45459 | -0.24372 | 520 ft | 31 kts | 216° |
| 2026-05-06 15:36 | 58.45234 | -0.24535 | 521 ft | 38 kts | 238° |
| 2026-05-06 15:37 | 58.45025 | -0.24895 | 476 ft | 36 kts | 250° |
| 2026-05-06 15:37 | 58.44942 | -0.25163 | 416 ft | 17 kts | 261° |
| 2026-05-06 15:37 | 58.44934 | -0.25355 | 333 ft | 8 kts | 263° |
| 2026-05-06 15:37 | 58.44930 | -0.25446 | 237 ft | 4 kts | 265° |
| 2026-05-06 15:38 | 58.44925 | -0.25488 | 173 ft | 2 kts | 268° |
| 2026-05-06 15:38 | 58.44924 | -0.25500 | 152 ft | 1 kts | 268° |
| 2026-05-06 15:38 | 58.44923 | -0.25502 | 147 ft | 0 kts | 271° |